Time;durP1;ratioP1;P1;durP2;ratioP2;P2;SDS_P1;SDS_P2;PMS_P1;PMS_P2;Temp;Humidity;BMP_temperature;BMP_pressure;BME280_temperature;BME280_humidity;BME280_pressure;Samples;Min_cycle;Max_cycle;Signal;HPM_P1;HPM_P2
2022/10/28 00:01:41;;;;;;;47.47;22.65;;;;;;;12.89;100.00;99880.59;4265681;33;20060;-74
2022/10/28 00:04:07;;;;;;;39.17;23.15;;;;;;;13.18;100.00;99894.03;4264810;33;20037;-74
2022/10/28 00:06:35;;;;;;;43.70;21.90;;;;;;;12.59;100.00;99848.44;4265238;33;20521;-74
2022/10/28 00:09:03;;;;;;;47.85;23.65;;;;;;;12.17;100.00;99809.06;4263779;33;20083;-75
2022/10/28 00:11:32;;;;;;;37.85;22.52;;;;;;;12.78;100.00;99886.87;4264277;33;20071;-74
2022/10/28 00:14:00;;;;;;;42.83;22.50;;;;;;;12.82;100.00;99896.16;4264567;33;20052;-74
2022/10/28 00:16:29;;;;;;;35.50;21.58;;;;;;;12.49;100.00;99885.03;4310862;33;20044;-74
2022/10/28 00:19:00;;;;;;;51.53;22.65;;;;;;;12.39;100.00;99886.72;4321734;33;20423;-76
2022/10/28 00:21:29;;;;;;;37.80;20.55;;;;;;;12.32;100.00;99849.88;4320159;33;20036;-74
2022/10/28 00:23:56;;;;;;;33.45;19.98;;;;;;;12.69;100.00;99884.56;4323052;33;20033;-76
2022/10/28 00:26:26;;;;;;;35.38;19.90;;;;;;;12.69;100.00;99887.28;4322575;33;20374;-75
2022/10/28 00:28:54;;;;;;;46.65;20.58;;;;;;;12.64;100.00;99884.50;4333694;33;20029;-76
2022/10/28 00:31:24;;;;;;;43.65;19.65;;;;;;;12.74;100.00;99889.25;4340041;33;20060;-76
2022/10/28 00:33:51;;;;;;;38.03;18.27;;;;;;;12.75;100.00;99868.44;4339823;33;20075;-74
2022/10/28 00:36:19;;;;;;;40.22;18.58;;;;;;;12.60;100.00;99872.50;4319051;33;20182;-74
2022/10/28 00:38:48;;;;;;;33.28;19.10;;;;;;;12.72;100.00;99875.19;4319760;33;20455;-74
2022/10/28 00:41:20;;;;;;;33.08;18.02;;;;;;;12.52;100.00;99854.00;4309170;33;20087;-74
2022/10/28 00:43:52;;;;;;;34.70;20.05;;;;;;;12.97;100.00;99857.75;4306272;33;20122;-75
2022/10/28 00:46:24;;;;;;;43.72;20.67;;;;;;;13.25;100.00;99873.06;4306998;33;20036;-75
2022/10/28 00:49:14;;;;;;;45.07;21.07;;;;;;;13.24;100.00;99844.38;4307070;33;20063;-74
2022/10/28 00:51:43;;;;;;;29.67;19.75;;;;;;;13.24;100.00;99809.22;4299449;33;20476;-75
2022/10/28 00:54:10;;;;;;;35.13;20.17;;;;;;;13.51;100.00;99827.50;4306228;33;20522;-76
2022/10/28 00:56:42;;;;;;;35.35;20.60;;;;;;;13.44;100.00;99816.84;4307457;33;20048;-75
2022/10/28 00:59:17;;;;;;;37.85;21.33;;;;;;;13.49;100.00;99845.88;4305979;33;20036;-74
2022/10/28 01:01:43;;;;;;;45.67;22.30;;;;;;;13.51;100.00;99849.13;4306484;33;20445;-74
2022/10/28 01:04:10;;;;;;;40.60;21.92;;;;;;;13.06;100.00;99819.22;4305028;33;20417;-73
2022/10/28 01:06:37;;;;;;;37.42;20.67;;;;;;;13.17;100.00;99811.28;4311826;33;20040;-73
2022/10/28 01:09:04;;;;;;;45.20;22.20;;;;;;;12.88;100.00;99830.31;4335414;33;20122;-74
2022/10/28 01:11:50;;;;;;;33.58;20.92;;;;;;;13.07;100.00;99842.50;4335615;33;20398;-74
2022/10/28 01:14:26;;;;;;;32.95;20.37;;;;;;;12.93;100.00;99845.78;4337423;33;20065;-73
2022/10/28 01:16:59;;;;;;;45.35;21.33;;;;;;;12.93;100.00;99843.91;4350385;33;20058;-75
2022/10/28 01:19:47;;;;;;;40.53;20.27;;;;;;;12.71;100.00;99806.78;4355170;33;20051;-73
2022/10/28 01:22:26;;;;;;;42.03;20.30;;;;;;;13.15;100.00;99829.66;4348782;33;20106;-74
2022/10/28 01:25:13;;;;;;;39.35;21.55;;;;;;;12.99;100.00;99826.72;4353721;33;20048;-75
2022/10/28 01:28:08;;;;;;;40.53;21.87;;;;;;;13.17;100.00;99822.09;4350214;33;20077;-74
2022/10/28 01:31:08;;;;;;;29.60;20.52;;;;;;;12.72;100.00;99827.34;4350247;33;20055;-74
2022/10/28 01:33:45;;;;;;;30.95;19.45;;;;;;;12.89;100.00;99829.22;4344027;33;20047;-76
2022/10/28 01:36:38;;;;;;;32.83;18.67;;;;;;;12.84;100.00;99789.44;4353245;33;20046;-75
2022/10/28 01:39:20;;;;;;;28.75;18.35;;;;;;;12.98;100.00;99819.66;4328768;33;20098;-73
2022/10/28 01:42:04;;;;;;;28.25;17.42;;;;;;;13.35;100.00;99827.25;4351561;33;20040;-73
2022/10/28 01:44:52;;;;;;;35.63;17.80;;;;;;;13.01;100.00;99786.72;4347844;33;20048;-75
2022/10/28 01:47:29;;;;;;;32.22;19.40;;;;;;;12.88;100.00;99787.06;4352009;33;20051;-73
2022/10/28 01:50:24;;;;;;;37.70;20.37;;;;;;;12.72;100.00;99819.25;4348675;33;20040;-76
2022/10/28 01:52:53;;;;;;;45.08;19.08;;;;;;;12.32;100.00;99776.94;4353836;33;20086;-74
2022/10/28 01:55:29;;;;;;;42.97;20.02;;;;;;;12.48;100.00;99793.44;4354202;33;20051;-74
2022/10/28 01:57:58;;;;;;;30.85;18.25;;;;;;;12.43;100.00;99817.63;4346535;33;20073;-75
2022/10/28 02:00:25;;;;;;;32.95;18.40;;;;;;;12.35;100.00;99781.88;4353861;33;20061;-75
2022/10/28 02:02:54;;;;;;;40.17;19.10;;;;;;;12.45;100.00;99815.53;4353795;33;20069;-75
2022/10/28 02:05:42;;;;;;;33.65;18.60;;;;;;;12.42;100.00;99816.00;4354237;33;20060;-75
2022/10/28 02:08:17;;;;;;;33.78;18.48;;;;;;;12.55;100.00;99815.69;4330443;33;20099;-75
2022/10/28 02:11:07;;;;;;;29.80;17.80;;;;;;;12.93;100.00;99811.47;4331649;33;20054;-75
2022/10/28 02:13:49;;;;;;;36.85;20.35;;;;;;;12.91;100.00;99802.78;4328901;33;20045;-75
2022/10/28 02:16:29;;;;;;;41.03;19.58;;;;;;;12.32;100.00;99771.56;4329345;33;20378;-76
2022/10/28 02:19:21;;;;;;;40.72;20.27;;;;;;;12.46;100.00;99800.94;4328975;33;20110;-76
2022/10/28 02:22:19;;;;;;;49.92;21.33;;;;;;;12.45;100.00;99804.72;4331451;33;20057;-75
2022/10/28 02:25:07;;;;;;;37.42;20.25;;;;;;;12.18;100.00;99779.13;4330344;33;20468;-76
2022/10/28 02:27:52;;;;;;;46.58;24.48;;;;;;;12.20;100.00;99795.09;4331010;33;20083;-76
2022/10/28 02:30:30;;;;;;;46.35;22.92;;;;;;;12.61;100.00;99793.13;4331962;33;20067;-76
2022/10/28 02:33:03;;;;;;;48.63;23.35;;;;;;;12.45;100.00;99799.31;4327728;33;20064;-77
2022/10/28 02:35:51;;;;;;;45.08;23.67;;;;;;;12.17;100.00;99755.91;4330013;33;20070;-75
2022/10/28 02:38:24;;;;;;;47.78;21.73;;;;;;;12.20;100.00;99803.19;4333803;32;20040;-76
2022/10/28 02:40:54;;;;;;;46.17;23.12;;;;;;;12.24;100.00;99804.34;4351885;32;20039;-77
2022/10/28 02:43:23;;;;;;;43.38;23.20;;;;;;;11.86;100.00;99797.66;4337747;33;20068;-75
2022/10/28 02:45:54;;;;;;;37.30;21.12;;;;;;;11.67;100.00;99742.22;4338779;33;20048;-75
2022/10/28 02:48:29;;;;;;;36.37;20.50;;;;;;;11.74;100.00;99786.06;4337734;33;20060;-76
2022/10/28 02:51:14;;;;;;;43.53;22.10;;;;;;;11.77;100.00;99788.28;4336125;33;20095;-75
2022/10/28 02:53:53;;;;;;;38.28;21.98;;;;;;;12.17;100.00;99793.69;4335490;33;20050;-74
2022/10/28 02:56:20;;;;;;;50.40;22.90;;;;;;;12.51;100.00;99787.56;4336680;33;20036;-74
2022/10/28 02:58:47;;;;;;;49.08;22.50;;;;;;;12.11;100.00;99777.63;4337101;33;20047;-75
2022/10/28 03:01:14;;;;;;;44.75;23.87;;;;;;;11.84;100.00;99747.66;4335476;33;20115;-75
2022/10/28 03:03:40;;;;;;;44.47;22.67;;;;;;;11.76;100.00;99738.09;4341357;33;20163;-75
2022/10/28 03:06:07;;;;;;;42.70;21.50;;;;;;;11.96;100.00;99767.38;4343777;33;20044;-76
2022/10/28 03:08:34;;;;;;;43.70;22.08;;;;;;;11.72;100.00;99739.63;4345480;33;20094;-75
2022/10/28 03:11:00;;;;;;;47.15;24.02;;;;;;;11.98;100.00;99758.00;4310398;33;20411;-74
2022/10/28 03:13:27;;;;;;;45.35;23.27;;;;;;;11.98;100.00;99763.38;4306618;33;20067;-73
2022/10/28 03:15:53;;;;;;;36.90;21.12;;;;;;;11.86;100.00;99743.69;4307338;33;20306;-74
2022/10/28 03:18:19;;;;;;;36.88;21.23;;;;;;;12.07;100.00;99773.78;4306858;33;20111;-74
2022/10/28 03:20:46;;;;;;;41.97;22.10;;;;;;;12.23;100.00;99737.09;4308433;33;20080;-73
2022/10/28 03:23:12;;;;;;;39.10;23.25;;;;;;;12.14;100.00;99723.16;4307971;33;20037;-74
2022/10/28 03:25:39;;;;;;;46.42;23.60;;;;;;;12.61;100.00;99749.87;4308006;33;20379;-74
2022/10/28 03:28:05;;;;;;;46.30;23.08;;;;;;;12.38;100.00;99736.53;4292511;33;20075;-74
2022/10/28 03:30:32;;;;;;;38.25;22.15;;;;;;;12.59;100.00;99762.00;4291580;33;20036;-74
2022/10/28 03:32:58;;;;;;;38.10;23.08;;;;;;;12.43;100.00;99736.59;4294321;33;20057;-74
2022/10/28 03:35:25;;;;;;;40.20;20.52;;;;;;;12.36;100.00;99769.19;4293680;33;20211;-74
2022/10/28 03:37:52;;;;;;;38.83;20.33;;;;;;;12.06;100.00;99764.03;4292553;33;20029;-75
2022/10/28 03:40:18;;;;;;;40.33;21.50;;;;;;;12.23;100.00;99770.31;4292968;33;20054;-76
2022/10/28 03:42:45;;;;;;;37.65;22.50;;;;;;;12.19;100.00;99769.16;4315445;33;20070;-76
2022/10/28 03:45:11;;;;;;;37.03;21.73;;;;;;;12.23;100.00;99770.31;4324380;33;20110;-74
2022/10/28 03:47:38;;;;;;;36.13;21.75;;;;;;;11.72;100.00;99732.34;4323655;33;20054;-74
2022/10/28 03:50:05;;;;;;;38.92;21.02;;;;;;;11.62;100.00;99695.22;4320975;33;20048;-76
2022/10/28 03:52:32;;;;;;;41.00;21.27;;;;;;;11.95;100.00;99771.97;4320340;33;20040;-75
2022/10/28 03:54:58;;;;;;;37.25;20.52;;;;;;;12.03;100.00;99770.75;4323456;33;20290;-75
2022/10/28 03:57:24;;;;;;;35.65;21.27;;;;;;;11.62;100.00;99748.34;4323589;33;20117;-75
2022/10/28 03:59:51;;;;;;;41.90;23.30;;;;;;;11.75;100.00;99720.25;4341627;32;20129;-75
2022/10/28 04:02:17;;;;;;;49.33;22.65;;;;;;;11.63;100.00;99718.44;4349566;32;20052;-77
2022/10/28 04:04:43;;;;;;;37.85;24.00;;;;;;;11.70;100.00;99728.28;4321157;33;20041;-75
2022/10/28 04:07:10;;;;;;;40.42;22.40;;;;;;;11.48;100.00;99703.81;4323282;33;20028;-75
2022/10/28 04:09:36;;;;;;;49.78;24.08;;;;;;;11.19;100.00;99707.28;4308096;33;20157;-75
2022/10/28 04:12:04;;;;;;;43.97;23.05;;;;;;;11.13;100.00;99708.22;4307040;33;20055;-77
2022/10/28 04:14:31;;;;;;;39.03;21.45;;;;;;;11.44;100.00;99746.62;4305822;33;20120;-74
2022/10/28 04:16:57;;;;;;;44.92;24.00;;;;;;;11.43;100.00;99739.59;4306918;33;20028;-73
2022/10/28 04:19:24;;;;;;;40.78;25.40;;;;;;;11.34;100.00;99744.50;4307698;33;20037;-74
2022/10/28 04:21:50;;;;;;;41.63;22.62;;;;;;;11.44;100.00;99752.03;4307138;33;20166;-75
2022/10/28 04:24:16;;;;;;;46.97;23.60;;;;;;;11.22;100.00;99712.19;4306111;33;20092;-75
2022/10/28 04:26:43;;;;;;;44.90;25.15;;;;;;;11.67;100.00;99748.44;4308759;33;20470;-75
2022/10/28 04:29:09;;;;;;;54.78;24.30;;;;;;;11.45;100.00;99699.72;4307914;33;20033;-74
2022/10/28 04:31:35;;;;;;;49.80;24.40;;;;;;;11.70;100.00;99744.44;4307111;33;20040;-73
2022/10/28 04:34:02;;;;;;;46.58;25.65;;;;;;;11.70;100.00;99722.88;4306733;33;20063;-74
2022/10/28 04:36:28;;;;;;;46.97;24.83;;;;;;;11.44;100.00;99703.50;4330566;33;20048;-73
2022/10/28 04:38:54;;;;;;;48.03;24.48;;;;;;;11.40;100.00;99702.31;4337350;33;20171;-75
2022/10/28 04:41:21;;;;;;;53.70;25.77;;;;;;;11.26;100.00;99713.38;4318729;33;20074;-73
2022/10/28 04:43:47;;;;;;;43.85;24.45;;;;;;;11.33;100.00;99713.25;4321291;33;20044;-73
2022/10/28 04:46:14;;;;;;;42.97;23.12;;;;;;;11.14;100.00;99680.22;4319007;33;20037;-74
2022/10/28 04:48:40;;;;;;;54.40;25.67;;;;;;;11.22;100.00;99695.22;4291884;33;20049;-74
2022/10/28 04:51:07;;;;;;;41.28;24.80;;;;;;;11.47;100.00;99710.25;4293368;33;20108;-73
2022/10/28 04:53:33;;;;;;;55.12;27.67;;;;;;;11.24;100.00;99683.13;4293023;33;20026;-73
2022/10/28 04:55:59;;;;;;;49.15;26.58;;;;;;;11.39;100.00;99714.16;4291026;33;20177;-75
2022/10/28 04:58:26;;;;;;;50.47;25.40;;;;;;;11.30;100.00;99675.97;4292480;33;20045;-73
2022/10/28 05:00:52;;;;;;;52.38;26.05;;;;;;;11.50;100.00;99704.41;4293488;33;20113;-74
2022/10/28 05:03:19;;;;;;;46.20;25.90;;;;;;;11.37;100.00;99670.44;4292885;33;20059;-74
2022/10/28 05:05:47;;;;;;;45.97;27.13;;;;;;;11.23;100.00;99703.06;4293657;33;20037;-73
2022/10/28 05:08:13;;;;;;;55.75;25.70;;;;;;;11.07;100.00;99677.66;4291748;33;20021;-75
2022/10/28 05:10:40;;;;;;;52.40;26.75;;;;;;;11.39;100.00;99673.69;4293147;33;20165;-74
2022/10/28 05:13:06;;;;;;;52.35;25.48;;;;;;;11.21;100.00;99705.16;4302064;33;20052;-74
2022/10/28 05:15:32;;;;;;;48.45;25.00;;;;;;;11.51;100.00;99709.56;4277374;33;20119;-75
2022/10/28 05:17:59;;;;;;;47.40;26.90;;;;;;;11.38;100.00;99672.09;4277016;33;20195;-74
2022/10/28 05:20:25;;;;;;;50.50;27.23;;;;;;;11.43;100.00;99691.06;4312084;33;20102;-75
2022/10/28 05:22:53;;;;;;;50.47;25.67;;;;;;;11.49;100.00;99711.69;4322563;33;20454;-73
2022/10/28 05:25:20;;;;;;;47.70;26.98;;;;;;;11.66;100.00;99717.13;4317849;33;20040;-76
2022/10/28 05:27:47;;;;;;;51.00;26.55;;;;;;;11.81;100.00;99716.59;4318607;33;20069;-75
2022/10/28 05:30:14;;;;;;;62.97;27.33;;;;;;;11.71;100.00;99708.31;4322483;33;20048;-74
2022/10/28 05:32:41;;;;;;;52.25;27.25;;;;;;;11.75;100.00;99694.09;4322132;33;20062;-73
2022/10/28 05:35:08;;;;;;;51.15;27.48;;;;;;;11.58;100.00;99698.63;4321405;33;20062;-74
2022/10/28 05:37:34;;;;;;;52.38;25.92;;;;;;;11.77;100.00;99697.38;4322267;33;20074;-73
2022/10/28 05:40:02;;;;;;;46.00;26.30;;;;;;;11.65;100.00;99683.13;4318321;33;20032;-72
2022/10/28 05:42:41;;;;;;;44.33;25.50;;;;;;;11.78;100.00;99711.69;4319156;33;20411;-73
2022/10/28 05:45:09;;;;;;;65.65;27.90;;;;;;;11.97;100.00;99713.16;4325100;33;20053;-74
2022/10/28 05:47:35;;;;;;;48.05;24.08;;;;;;;11.80;100.00;99701.47;4335007;33;20053;-76
2022/10/28 05:50:02;;;;;;;48.00;25.73;;;;;;;11.70;100.00;99701.28;4339815;33;20056;-73
2022/10/28 05:52:28;;;;;;;47.20;26.50;;;;;;;11.88;100.00;99692.97;4340575;33;20048;-76
2022/10/28 05:54:55;;;;;;;51.47;26.55;;;;;;;11.84;100.00;99701.81;4338689;33;20036;-77
2022/10/28 05:57:21;;;;;;;55.70;26.20;;;;;;;12.09;100.00;99707.69;4322318;33;20055;-77
2022/10/28 05:59:48;;;;;;;47.40;25.88;;;;;;;11.61;100.00;99653.09;4333830;33;20175;-79
2022/10/28 06:02:14;;;;;;;50.40;24.90;;;;;;;11.55;100.00;99672.97;4331230;33;20052;-79
2022/10/28 06:04:41;;;;;;;60.10;25.88;;;;;;;11.78;100.00;99671.22;4331384;33;20163;-78
2022/10/28 06:07:08;;;;;;;51.17;25.48;;;;;;;11.73;100.00;99690.03;4283098;33;20021;-78
2022/10/28 06:09:41;;;;;;;50.47;26.12;;;;;;;11.74;100.00;99659.25;4258807;33;20427;-79
2022/10/28 06:12:08;;;;;;;53.92;25.67;;;;;;;11.83;100.00;99684.81;4259892;33;20038;-78
2022/10/28 06:14:34;;;;;;;50.22;26.60;;;;;;;11.76;100.00;99695.75;4257734;33;20480;-78
2022/10/28 06:17:01;;;;;;;50.08;26.90;;;;;;;11.77;100.00;99701.94;4258314;33;20136;-78
2022/10/28 06:19:27;;;;;;;58.50;26.83;;;;;;;11.40;100.00;99696.91;4261282;33;20502;-77
2022/10/28 06:21:54;;;;;;;48.97;24.50;;;;;;;11.53;100.00;99668.84;4259143;33;20097;-77
2022/10/28 06:24:20;;;;;;;51.25;26.70;;;;;;;11.78;100.00;99709.81;4259675;33;20436;-78
2022/10/28 06:26:47;;;;;;;51.10;25.62;;;;;;;11.42;100.00;99662.44;4259911;33;20030;-77
2022/10/28 06:29:14;;;;;;;49.50;26.73;;;;;;;11.62;100.00;99668.22;4277031;33;20079;-77
2022/10/28 06:31:41;;;;;;;55.95;27.27;;;;;;;12.02;100.00;99698.94;4266645;33;20149;-79
2022/10/28 06:34:09;;;;;;;60.08;29.20;;;;;;;12.04;100.00;99702.19;4265004;33;20034;-78
2022/10/28 06:36:36;;;;;;;61.00;28.45;;;;;;;11.85;100.00;99698.88;4267712;33;20055;-77
2022/10/28 06:39:02;;;;;;;56.30;27.02;;;;;;;11.70;100.00;99668.91;4291285;33;20422;-78
2022/10/28 06:41:29;;;;;;;47.55;24.83;;;;;;;11.57;100.00;99670.03;4307521;33;20420;-81
2022/10/28 06:43:55;;;;;;;49.95;26.12;;;;;;;11.80;100.00;99713.06;4307166;33;20044;-79
2022/10/28 06:46:21;;;;;;;54.10;24.45;;;;;;;11.58;100.00;99668.94;4310832;33;20033;-76
2022/10/28 06:48:48;;;;;;;51.90;25.10;;;;;;;11.61;100.00;99663.88;4308113;33;20051;-78
2022/10/28 06:51:18;;;;;;;57.97;25.48;;;;;;;11.90;100.00;99715.16;4309195;33;20025;-78
2022/10/28 06:53:50;;;;;;;48.85;26.37;;;;;;;11.89;100.00;99694.63;4293783;33;20093;-78
2022/10/28 06:56:17;;;;;;;56.45;27.83;;;;;;;12.23;100.00;99702.81;4295387;33;20029;-78
2022/10/28 06:58:49;;;;;;;51.15;26.05;;;;;;;12.11;100.00;99699.34;4289161;33;20037;-78
2022/10/28 07:01:15;;;;;;;54.60;28.60;;;;;;;12.14;100.00;99697.00;4289108;33;20694;-79
2022/10/28 07:03:45;;;;;;;60.42;28.25;;;;;;;11.96;100.00;99668.31;4312347;33;20099;-79
2022/10/28 07:09:48;;;;;;;59.30;27.45;;;;;;;11.98;100.00;99709.41;4310139;33;20055;-78
2022/10/28 07:12:14;;;;;;;60.63;27.27;;;;;;;12.30;100.00;99711.59;4309493;33;20041;-78
2022/10/28 07:14:41;;;;;;;62.38;26.17;;;;;;;12.45;100.00;99704.78;4306745;33;20064;-79
2022/10/28 07:17:07;;;;;;;56.80;25.80;;;;;;;12.34;100.00;99685.72;4310391;33;20065;-79
2022/10/28 07:19:34;;;;;;;49.85;24.95;;;;;;;12.42;100.00;99699.88;4310734;33;20162;-79
2022/10/28 07:22:00;;;;;;;51.08;24.27;;;;;;;12.11;100.00;99692.09;4282312;33;20193;-80
2022/10/28 07:24:27;;;;;;;55.40;25.92;;;;;;;12.18;100.00;99703.53;4296606;33;20099;-77
2022/10/28 07:26:54;;;;;;;57.88;25.05;;;;;;;12.24;100.00;99655.84;4294972;33;20036;-77
2022/10/28 07:29:20;;;;;;;52.62;26.92;;;;;;;12.62;100.00;99694.81;4299726;33;20042;-75
2022/10/28 07:31:47;;;;;;;48.58;25.52;;;;;;;12.49;100.00;99692.41;4311575;33;20049;-75
2022/10/28 07:34:14;;;;;;;60.83;26.15;;;;;;;12.12;100.00;99660.50;4308185;33;20049;-77
2022/10/28 07:36:41;;;;;;;49.75;27.23;;;;;;;12.62;100.00;99659.69;4297000;33;20482;-77
2022/10/28 07:39:08;;;;;;;53.80;24.48;;;;;;;12.91;100.00;99689.28;4306454;33;20090;-76
2022/10/28 07:41:36;;;;;;;55.65;25.45;;;;;;;12.95;100.00;99701.22;4310451;33;20041;-79
2022/10/28 07:44:02;;;;;;;43.90;23.40;;;;;;;12.86;100.00;99675.66;4308835;33;20063;-76
2022/10/28 07:46:29;;;;;;;42.53;23.42;;;;;;;12.60;100.00;99660.97;4310743;33;20071;-75
2022/10/28 07:48:56;;;;;;;48.55;24.37;;;;;;;12.93;100.00;99691.72;4307124;33;20079;-76
2022/10/28 07:51:23;;;;;;;41.20;23.10;;;;;;;12.69;100.00;99686.53;4310828;33;20180;-77
2022/10/28 07:53:49;;;;;;;42.95;23.20;;;;;;;13.23;100.00;99696.72;4309117;33;20042;-76
2022/10/28 07:56:16;;;;;;;48.28;22.62;;;;;;;13.08;100.00;99657.63;4311106;33;20048;-76
2022/10/28 07:58:43;;;;;;;42.60;20.73;;;;;;;13.24;100.00;99687.53;4308455;33;20051;-77
2022/10/28 08:01:13;;;;;;;41.03;22.87;;;;;;;13.51;100.00;99697.63;4281663;33;20057;-78
2022/10/28 08:03:40;;;;;;;40.17;21.42;;;;;;;13.24;100.00;99655.09;4273998;33;20045;-75
2022/10/28 08:06:12;;;;;;;43.38;21.77;;;;;;;13.39;100.00;99701.28;4266968;33;20077;-76
2022/10/28 08:08:39;;;;;;;;;;;;;;;13.47;100.00;99699.22;4264976;33;20352;-76
2022/10/28 08:11:10;;;;;;;46.20;20.05;;;;;;;13.74;100.00;99697.38;4266916;33;20002;-76
2022/10/28 08:13:36;;;;;;;42.75;20.95;;;;;;;13.66;100.00;99695.13;4265242;33;20482;-76
2022/10/28 08:16:07;;;;;;;38.22;21.67;;;;;;;13.72;100.00;99667.03;4266835;33;20046;-75
2022/10/28 08:18:34;;;;;;;38.45;19.25;;;;;;;13.97;100.00;99692.72;4249920;33;20042;-75
2022/10/28 08:21:03;;;;;;;45.78;21.77;;;;;;;13.53;100.00;99695.47;4266394;33;20104;-75
2022/10/28 08:23:30;;;;;;;41.22;20.77;;;;;;;13.90;100.00;99689.41;4278198;33;20053;-74
2022/10/28 08:25:57;;;;;;;36.95;20.95;;;;;;;13.84;100.00;99701.25;4281868;33;20057;-75
2022/10/28 08:28:24;;;;;;;45.17;23.00;;;;;;;13.59;100.00;99668.25;4277596;33;20033;-75
2022/10/28 08:30:50;;;;;;;46.53;22.20;;;;;;;13.75;100.00;99703.59;4281267;33;20066;-75
2022/10/28 08:33:17;;;;;;;51.85;23.15;;;;;;;13.55;100.00;99659.00;4267611;33;20071;-75
2022/10/28 08:35:53;;;;;;;47.03;24.05;;;;;;;13.88;100.00;99678.00;4266401;33;20076;-75
2022/10/28 08:38:20;;;;;;;45.58;21.65;;;;;;;13.96;100.00;99685.66;4264226;33;20214;-75
2022/10/28 08:41:08;;;;;;;44.45;21.62;;;;;;;14.23;100.00;99688.37;4266301;33;20220;-77
2022/10/28 08:44:05;;;;;;;45.78;20.45;;;;;;;14.27;100.00;99684.06;4271438;33;20075;-75
2022/10/28 08:46:57;;;;;;;42.40;21.40;;;;;;;14.33;100.00;99684.94;4285690;33;20054;-75
2022/10/28 08:49:24;;;;;;;41.63;20.58;;;;;;;14.55;100.00;99690.25;4291641;33;20045;-78
2022/10/28 08:52:00;;;;;;;42.72;20.55;;;;;;;14.32;100.00;99624.50;4308003;33;20359;-77
2022/10/28 08:54:39;;;;;;;34.88;18.30;;;;;;;14.77;100.00;99682.00;4308111;33;20080;-78
2022/10/28 08:57:15;;;;;;;39.00;20.20;;;;;;;14.70;100.00;99681.44;4278583;33;20471;-79
2022/10/28 08:59:44;;;;;;;31.83;16.23;;;;;;;14.64;100.00;99612.00;4264301;33;20075;-77
2022/10/28 09:02:10;;;;;;;36.83;17.45;;;;;;;14.62;100.00;99679.22;4266213;33;20063;-77
2022/10/28 09:04:45;;;;;;;29.87;16.20;;;;;;;14.93;100.00;99680.19;4265009;33;20038;-77
2022/10/28 09:07:20;;;;;;;30.77;15.48;;;;;;;14.89;100.00;99679.91;4263653;33;20075;-76
2022/10/28 09:09:50;;;;;;;27.83;15.13;;;;;;;15.24;100.00;99664.91;4266739;33;20102;-78
2022/10/28 09:12:23;;;;;;;25.27;15.02;;;;;;;14.99;100.00;99660.16;4296428;33;20064;-78
2022/10/28 09:15:16;;;;;;;26.42;15.73;;;;;;;15.11;100.00;99680.84;4293178;33;20022;-78
2022/10/28 09:17:53;;;;;;;25.55;16.33;;;;;;;15.49;100.00;99687.78;4293376;33;20057;-78
2022/10/28 09:20:27;;;;;;;29.92;16.12;;;;;;;15.56;100.00;99682.94;4293934;33;20479;-76
2022/10/28 09:22:57;;;;;;;31.15;14.73;;;;;;;15.61;100.00;99672.09;4296173;33;20029;-77
2022/10/28 09:25:37;;;;;;;28.70;14.52;;;;;;;15.54;100.00;99679.69;4295543;33;20026;-77
2022/10/28 09:28:08;;;;;;;29.50;15.15;;;;;;;15.27;100.00;99679.84;4294742;33;21135;-78
2022/10/28 09:30:49;;;;;;;30.90;14.07;;;;;;;15.87;100.00;99683.03;4306956;33;20079;-76
2022/10/28 09:33:34;;;;;;;30.25;14.52;;;;;;;16.09;100.00;99657.53;4323157;33;20482;-78
2022/10/28 09:36:02;;;;;;;26.92;13.73;;;;;;;16.14;100.00;99643.94;4341529;33;20419;-78
2022/10/28 09:38:34;;;;;;;35.20;14.43;;;;;;;16.60;100.00;99662.94;4340539;33;20343;-75
2022/10/28 09:41:05;;;;;;;30.45;14.38;;;;;;;16.75;100.00;99656.66;4341614;33;20393;-76
2022/10/28 09:43:34;;;;;;;22.08;14.77;;;;;;;16.71;100.00;99637.38;4343710;33;20352;-76
2022/10/28 09:46:07;;;;;;;29.98;13.93;;;;;;;16.55;100.00;99660.25;4336932;33;20420;-77
2022/10/28 09:48:42;;;;;;;25.15;13.90;;;;;;;16.31;100.00;99632.81;4337702;33;20063;-76
2022/10/28 09:51:54;;;;;;;29.50;12.48;;;;;;;16.74;100.00;99632.47;4335755;33;20070;-75
2022/10/28 09:54:32;;;;;;;24.23;13.02;;;;;;;16.85;100.00;99659.41;4463018;27;20095;-71
2022/10/28 09:56:58;;;;;;;22.52;11.68;;;;;;;16.95;100.00;99634.06;4430049;27;20388;-76
2022/10/28 09:59:25;;;;;;;20.60;12.65;;;;;;;17.05;100.00;99658.50;4328120;33;20457;-77
2022/10/28 10:01:51;;;;;;;30.70;12.18;;;;;;;16.49;100.00;99612.41;4321512;33;20063;-77
2022/10/28 10:04:24;;;;;;;22.10;13.13;;;;;;;17.10;100.00;99643.28;4323118;33;20074;-77
2022/10/28 10:07:13;;;;;;;24.05;11.82;;;;;;;17.02;100.00;99612.84;4323456;33;20353;-77
2022/10/28 10:09:42;;;;;;;25.08;11.82;;;;;;;17.51;100.00;99651.25;4321542;33;20373;-77
2022/10/28 10:12:10;;;;;;;20.08;11.48;;;;;;;17.49;100.00;99637.94;4280280;33;20049;-77
2022/10/28 10:14:45;;;;;;;25.25;11.48;;;;;;;17.53;100.00;99619.13;4272209;33;20426;-77
2022/10/28 10:17:17;;;;;;;17.02;10.15;;;;;;;17.71;100.00;99604.84;4293967;33;20033;-77
2022/10/28 10:20:05;;;;;;;;;;;;;;;17.92;100.00;99637.44;4307112;33;20045;-78
2022/10/28 10:22:40;;;;;;;24.37;10.93;;;;;;;17.89;100.00;99646.97;4308530;33;19935;-78
2022/10/28 10:25:18;;;;;;;19.73;10.27;;;;;;;17.64;100.00;99609.78;4307297;33;20029;-78
2022/10/28 10:28:03;;;;;;;31.35;10.68;;;;;;;18.46;100.00;99641.88;4308455;33;20071;-78
2022/10/28 10:30:36;;;;;;;14.27;9.70;;;;;;;18.34;100.00;99644.16;4310465;33;20062;-78
2022/10/28 10:33:06;;;;;;;18.67;9.57;;;;;;;18.08;100.00;99632.66;4308530;33;20160;-77
2022/10/28 10:35:35;;;;;;;22.27;9.52;;;;;;;18.22;100.00;99641.81;4310955;33;20364;-77
2022/10/28 10:38:05;;;;;;;18.10;9.32;;;;;;;18.60;100.00;99642.00;4309893;33;20041;-76
2022/10/28 10:40:49;;;;;;;18.15;10.23;;;;;;;18.35;100.00;99645.78;4310407;33;20055;-77
2022/10/28 10:43:16;;;;;;;19.95;10.25;;;;;;;18.28;100.00;99609.88;4324564;33;20044;-76
2022/10/28 10:45:59;;;;;;;20.12;8.10;;;;;;;18.81;100.00;99609.03;4340327;33;20048;-76
2022/10/28 10:48:27;;;;;;;17.83;8.63;;;;;;;18.35;100.00;99624.00;4338970;33;20040;-77
2022/10/28 10:50:54;;;;;;;11.73;8.75;;;;;;;18.34;100.00;99606.00;4340294;33;20051;-76
2022/10/28 10:53:29;;;;;;;13.80;7.70;;;;;;;19.02;100.00;99615.13;4340132;33;20032;-78
2022/10/28 10:56:02;;;;;;;17.45;8.30;;;;;;;19.57;100.00;99610.00;4339334;33;20033;-77
2022/10/28 10:58:36;;;;;;;16.62;8.50;;;;;;;20.05;100.00;99643.75;4336234;33;20036;-77
2022/10/28 11:01:06;;;;;;;10.43;6.95;;;;;;;20.03;100.00;99643.25;4340155;33;20043;-78
2022/10/28 11:03:37;;;;;;;17.35;8.05;;;;;;;20.32;100.00;99641.09;4338555;33;20024;-77
2022/10/28 11:06:06;;;;;;;;;;;;;;;20.17;100.00;99638.66;4326025;33;20032;-78
2022/10/28 11:08:38;;;;;;;14.82;8.02;;;;;;;20.60;100.00;99640.34;4324377;33;19928;-77
2022/10/28 11:11:07;;;;;;;12.07;6.62;;;;;;;21.24;100.00;99618.63;4325573;33;20171;-78
2022/10/28 11:13:35;;;;;;;17.08;7.37;;;;;;;20.91;100.00;99607.78;4324864;33;20047;-76
2022/10/28 11:16:16;;;;;;;12.40;7.07;;;;;;;21.33;100.00;99635.97;4323790;33;20046;-78
2022/10/28 11:18:45;;;;;;;14.60;7.07;;;;;;;21.80;100.00;99632.22;4325095;33;20044;-78
2022/10/28 11:21:20;;;;;;;17.95;6.28;;;;;;;21.42;100.00;99603.97;4296807;33;20033;-77
2022/10/28 11:24:09;;;;;;;15.43;7.35;;;;;;;20.75;100.00;99634.63;4323746;33;20037;-78
2022/10/28 11:26:46;;;;;;;13.13;6.80;;;;;;;20.18;100.00;99623.84;4324434;33;20049;-77
2022/10/28 11:29:15;;;;;;;18.05;7.57;;;;;;;20.36;100.00;99624.09;4323904;33;20040;-77
2022/10/28 11:31:43;;;;;;;10.45;6.82;;;;;;;19.95;100.00;99634.59;4322433;33;20058;-76
2022/10/28 11:34:46;;;;;;;12.60;6.95;;;;;;;20.31;100.00;99639.50;4325451;33;20102;-78